createdAt,value
2019-04-30T00:01:30.891Z,82.17
2019-04-30T00:04:08.894Z,83.45
2019-04-30T00:06:39.910Z,82.57
2019-04-30T00:09:15.140Z,81.96
2019-04-30T00:11:50.654Z,81.66
2019-04-30T00:14:19.394Z,81.81
2019-04-30T00:16:50.512Z,81.87
2019-04-30T00:19:21.627Z,82.08
2019-04-30T00:21:57.104Z,82.07
2019-04-30T00:24:25.995Z,82.96
2019-04-30T00:26:57.234Z,82.25
2019-04-30T00:29:31.022Z,82.61
2019-04-30T00:32:04.474Z,82.35
2019-04-30T00:34:35.879Z,83.62
2019-04-30T00:37:13.843Z,83.33
2019-04-30T00:39:44.367Z,83.36
2019-04-30T00:42:17.299Z,83.78
2019-04-30T00:44:45.709Z,83.14
2019-04-30T00:47:16.813Z,82.45
2019-04-30T00:49:52.165Z,83.06
2019-04-30T00:52:20.448Z,83.55
2019-04-30T00:54:51.443Z,83.03
2019-04-30T00:57:22.412Z,82.61
2019-04-30T00:59:54.902Z,82.88
2019-04-30T01:03:00.857Z,82.35
2019-04-30T01:05:32.566Z,82.43
2019-04-30T01:08:04.972Z,83.91
2019-04-30T01:10:36.814Z,83.25
2019-04-30T01:13:11.822Z,83.32
2019-04-30T01:15:43.905Z,84.78
2019-04-30T01:18:13.243Z,84.02
2019-04-30T01:20:44.380Z,83.32
2019-04-30T01:23:17.000Z,83.45
2019-04-30T01:25:51.312Z,83.50
2019-04-30T01:28:24.236Z,83.66
2019-04-30T01:30:58.754Z,83.68
2019-04-30T01:33:28.472Z,84.02
2019-04-30T01:35:59.912Z,83.53
2019-04-30T01:38:32.637Z,83.17
2019-04-30T01:41:04.075Z,83.62
2019-04-30T01:43:35.074Z,84.22
2019-04-30T01:46:09.418Z,83.85
2019-04-30T01:48:39.338Z,84.36
2019-04-30T01:51:13.323Z,84.69
2019-04-30T01:53:43.824Z,84.99
2019-04-30T01:56:41.443Z,84.75
2019-04-30T01:59:18.964Z,84.06
2019-04-30T02:01:51.069Z,84.07
2019-04-30T02:04:22.122Z,84.37
2019-04-30T02:06:53.107Z,83.53
2019-04-30T02:09:24.289Z,84.22
2019-04-30T02:11:55.353Z,84.45
2019-04-30T02:14:26.411Z,84.34
2019-04-30T02:16:59.014Z,84.47
2019-04-30T02:19:31.218Z,84.18
2019-04-30T02:22:02.333Z,83.70
2019-04-30T02:24:33.291Z,83.84
2019-04-30T02:27:04.328Z,83.77
2019-04-30T02:29:35.365Z,84.45
2019-04-30T02:32:06.512Z,84.06
2019-04-30T02:34:44.334Z,84.35
2019-04-30T02:37:21.157Z,83.04
2019-04-30T02:39:52.381Z,83.97
2019-04-30T02:42:24.181Z,84.71
2019-04-30T02:44:56.721Z,84.65
2019-04-30T02:47:30.400Z,84.67
2019-04-30T02:50:15.449Z,85.91
2019-04-30T02:52:40.546Z,84.74
2019-04-30T02:55:19.376Z,84.55
2019-04-30T02:57:49.971Z,84.98
2019-04-30T03:00:21.159Z,85.12
2019-04-30T03:02:52.124Z,84.56
2019-04-30T03:05:23.105Z,84.97
2019-04-30T03:07:54.145Z,85.81
2019-04-30T03:10:25.114Z,85.33
2019-04-30T03:12:56.102Z,85.36
2019-04-30T03:15:29.580Z,84.78
2019-04-30T03:18:12.974Z,84.11
2019-04-30T03:21:01.530Z,83.74
2019-04-30T03:23:32.507Z,84.24
2019-04-30T03:26:03.490Z,83.85
2019-04-30T03:28:34.464Z,84.02
2019-04-30T03:31:05.526Z,84.86
2019-04-30T03:33:36.504Z,85.95
2019-04-30T03:36:11.958Z,85.00
2019-04-30T03:38:42.727Z,84.69
2019-04-30T03:41:13.217Z,85.30
2019-04-30T03:43:44.340Z,84.60
2019-04-30T03:46:15.424Z,83.69
2019-04-30T03:48:46.688Z,83.69
2019-04-30T03:51:19.872Z,84.05
2019-04-30T03:53:51.160Z,84.01
2019-04-30T03:56:22.848Z,84.77
2019-04-30T03:58:54.268Z,84.44
2019-04-30T04:01:33.554Z,84.55
2019-04-30T04:04:10.948Z,84.46
2019-04-30T04:06:49.038Z,85.01
2019-04-30T04:09:24.851Z,85.86
2019-04-30T04:11:59.856Z,85.34
2019-04-30T04:14:30.353Z,84.92
2019-04-30T04:17:01.750Z,84.57
2019-04-30T04:19:32.836Z,85.10
2019-04-30T04:22:04.288Z,84.14
2019-04-30T04:24:35.498Z,83.93
2019-04-30T04:27:06.491Z,84.24
2019-04-30T04:31:00.394Z,84.63
2019-04-30T04:33:31.388Z,84.33
2019-04-30T04:36:02.510Z,85.56
2019-04-30T04:38:33.520Z,85.73
2019-04-30T04:41:04.575Z,85.41
2019-04-30T04:43:35.645Z,84.91
2019-04-30T04:46:09.086Z,84.78
2019-04-30T04:48:39.546Z,84.71
2019-04-30T04:51:27.164Z,85.01
2019-04-30T04:53:43.287Z,84.24
2019-04-30T04:56:14.270Z,85.38
2019-04-30T04:58:45.321Z,85.95
2019-04-30T05:01:16.387Z,84.52
2019-04-30T05:03:48.965Z,84.72
2019-04-30T05:06:21.935Z,85.15
2019-04-30T05:08:52.909Z,84.18
2019-04-30T05:11:23.908Z,84.08
2019-04-30T05:13:54.866Z,84.10
2019-04-30T05:16:25.909Z,84.11
2019-04-30T05:18:58.604Z,84.20
2019-04-30T05:21:41.400Z,85.02
2019-04-30T05:24:02.311Z,83.78
2019-04-30T05:26:33.303Z,83.79
2019-04-30T05:29:04.337Z,83.73
2019-04-30T05:31:35.540Z,84.30
2019-04-30T05:34:10.075Z,83.77
2019-04-30T05:36:39.302Z,83.56
2019-04-30T05:39:10.265Z,85.35
2019-04-30T05:41:41.332Z,85.00
2019-04-30T05:44:12.289Z,84.21
2019-04-30T05:46:43.259Z,85.42
2019-04-30T05:49:14.227Z,85.19
2019-04-30T05:51:53.593Z,85.92
2019-04-30T05:54:19.011Z,86.22
2019-04-30T05:56:50.001Z,86.55
2019-04-30T05:59:22.110Z,86.81
2019-04-30T06:01:53.172Z,86.37
2019-04-30T06:04:24.246Z,86.01
2019-04-30T06:06:55.208Z,87.12
2019-04-30T06:09:35.446Z,87.92
2019-04-30T06:12:22.267Z,87.36
2019-04-30T06:15:05.555Z,87.30
2019-04-30T06:17:36.944Z,87.53
2019-04-30T06:20:17.759Z,87.84
2019-04-30T06:22:40.904Z,88.03
2019-04-30T06:25:12.349Z,88.06
2019-04-30T06:27:43.862Z,87.38
2019-04-30T06:30:15.823Z,87.03
2019-04-30T06:32:47.272Z,87.21
2019-04-30T06:35:19.347Z,86.51
2019-04-30T06:37:50.687Z,86.97
2019-04-30T06:40:21.991Z,86.11
2019-04-30T06:42:53.844Z,85.36
2019-04-30T06:45:25.175Z,86.43
2019-04-30T06:47:58.706Z,86.45
2019-04-30T06:50:30.099Z,86.48
2019-04-30T06:53:02.210Z,86.15
2019-04-30T06:55:33.178Z,85.77
2019-04-30T06:58:14.742Z,85.92
2019-04-30T07:00:39.970Z,86.56
2019-04-30T07:03:11.414Z,86.34
2019-04-30T07:05:42.463Z,86.48
2019-04-30T07:08:39.582Z,86.34
2019-04-30T07:11:21.833Z,86.87
2019-04-30T07:13:53.110Z,85.97
2019-04-30T07:16:24.228Z,86.85
2019-04-30T07:18:55.278Z,87.17
2019-04-30T07:21:26.257Z,85.95
2019-04-30T07:23:57.249Z,85.57
2019-04-30T07:26:28.964Z,85.95
2019-04-30T07:29:02.567Z,86.44
2019-04-30T07:31:32.804Z,86.47
2019-04-30T07:34:03.805Z,86.94
2019-04-30T07:36:45.170Z,86.69
2019-04-30T07:39:09.998Z,87.01
2019-04-30T07:41:41.115Z,87.44
2019-04-30T07:44:29.427Z,87.28
2019-04-30T07:46:45.476Z,86.57
2019-04-30T07:49:16.638Z,86.58
2019-04-30T07:51:49.087Z,87.06
2019-04-30T07:54:20.399Z,87.16
2019-04-30T07:56:51.518Z,87.28
2019-04-30T07:59:22.536Z,87.23
2019-04-30T08:02:04.093Z,87.97
2019-04-30T08:04:43.975Z,86.17
2019-04-30T08:07:15.187Z,85.64
2019-04-30T08:09:46.281Z,86.47
2019-04-30T08:12:28.206Z,86.59
2019-04-30T08:14:50.122Z,85.25
2019-04-30T08:17:21.080Z,86.30
2019-04-30T08:19:52.062Z,86.24
2019-04-30T08:22:23.038Z,86.06
2019-04-30T08:24:54.031Z,85.93
2019-04-30T08:27:25.021Z,85.50
2019-04-30T08:29:55.993Z,85.15
2019-04-30T08:32:28.887Z,86.01
2019-04-30T08:35:01.167Z,85.73
2019-04-30T08:37:32.258Z,87.14
2019-04-30T08:40:03.624Z,86.84
2019-04-30T08:42:37.715Z,88.05
2019-04-30T08:45:09.477Z,87.29
2019-04-30T08:47:40.791Z,86.96
2019-04-30T08:50:12.796Z,86.28
2019-04-30T08:52:43.982Z,86.00
2019-04-30T08:55:17.102Z,85.37
2019-04-30T08:57:50.024Z,86.71
2019-04-30T09:00:21.853Z,86.19
2019-04-30T09:02:52.864Z,87.04
2019-04-30T09:05:30.604Z,87.15
2019-04-30T09:08:01.828Z,87.38
2019-04-30T09:10:32.873Z,87.25
2019-04-30T09:13:04.087Z,86.33
2019-04-30T09:15:35.203Z,86.18
2019-04-30T09:18:10.260Z,86.02
2019-04-30T09:20:40.902Z,84.94
2019-04-30T09:23:12.084Z,85.75
2019-04-30T09:25:43.115Z,86.24
2019-04-30T09:28:14.168Z,86.57
2019-04-30T09:30:45.333Z,87.55
2019-04-30T09:33:16.312Z,87.92
2019-04-30T09:35:49.399Z,87.17
2019-04-30T09:38:20.578Z,85.97
2019-04-30T09:40:51.555Z,85.68
2019-04-30T09:43:22.555Z,87.00
2019-04-30T09:45:53.680Z,87.22
2019-04-30T09:48:24.721Z,87.69
2019-04-30T09:50:55.990Z,87.67
2019-04-30T09:53:29.392Z,87.50
2019-04-30T09:56:00.066Z,86.49
2019-04-30T09:58:31.213Z,86.87
2019-04-30T10:01:02.362Z,86.87
2019-04-30T10:03:34.267Z,87.09
2019-04-30T10:06:06.102Z,87.33
2019-04-30T10:08:47.986Z,86.59
2019-04-30T10:11:16.285Z,87.81
2019-04-30T10:13:47.338Z,86.59
2019-04-30T10:16:39.654Z,85.95
2019-04-30T10:19:10.734Z,86.64
2019-04-30T10:21:41.792Z,86.94
2019-04-30T10:24:15.611Z,87.02
2019-04-30T10:26:45.714Z,86.00
2019-04-30T10:29:18.530Z,86.08
2019-04-30T10:31:49.826Z,86.36
2019-04-30T10:34:20.908Z,85.90
2019-04-30T10:36:52.182Z,85.20
2019-04-30T10:39:23.796Z,86.61
2019-04-30T10:41:55.137Z,86.76
2019-04-30T10:44:26.213Z,86.79
2019-04-30T10:46:59.217Z,85.30
2019-04-30T10:49:29.971Z,86.88
2019-04-30T10:52:01.251Z,86.92
2019-04-30T10:54:32.639Z,85.52
2019-04-30T10:57:03.748Z,85.34
2019-04-30T10:59:34.786Z,85.64
2019-04-30T11:02:06.151Z,84.82
2019-04-30T11:04:37.214Z,85.71
2019-04-30T11:07:08.834Z,85.47
2019-04-30T11:09:40.045Z,84.17
2019-04-30T11:12:11.228Z,83.72
2019-04-30T11:14:42.565Z,83.50
2019-04-30T11:17:13.778Z,82.37
2019-04-30T11:19:45.105Z,83.20
2019-04-30T11:22:16.386Z,82.71
2019-04-30T11:24:58.754Z,82.72
2019-04-30T11:27:21.414Z,81.37
2019-04-30T11:29:53.016Z,81.89
2019-04-30T11:32:25.169Z,81.04
2019-04-30T11:34:56.302Z,81.06
2019-04-30T11:37:27.470Z,81.02
2019-04-30T11:39:58.595Z,78.11
2019-04-30T11:42:32.214Z,78.04
2019-04-30T11:45:02.894Z,80.46
2019-04-30T11:47:35.044Z,77.55
2019-04-30T11:50:13.364Z,77.12
2019-04-30T11:52:44.709Z,78.03
2019-04-30T11:55:16.123Z,77.39
2019-04-30T11:57:49.405Z,75.53
2019-04-30T12:00:27.180Z,76.60
2019-04-30T12:02:59.347Z,75.90
2019-04-30T12:05:30.560Z,76.88
2019-04-30T12:08:16.272Z,76.46
2019-04-30T12:11:15.396Z,78.16
2019-04-30T12:13:46.524Z,76.67
2019-04-30T12:16:18.609Z,78.82
2019-04-30T12:18:49.677Z,76.85
2019-04-30T12:21:20.672Z,77.37
2019-04-30T12:23:51.679Z,75.64
2019-04-30T12:26:22.720Z,76.51
2019-04-30T12:28:53.741Z,76.69
2019-04-30T12:31:24.749Z,73.12
2019-04-30T12:33:55.753Z,75.78
2019-04-30T12:36:28.790Z,74.49
2019-04-30T12:39:00.531Z,73.79
2019-04-30T12:41:33.143Z,73.35
2019-04-30T12:44:04.223Z,73.58
2019-04-30T12:46:35.287Z,73.01
2019-04-30T12:49:11.555Z,70.66
2019-04-30T12:52:05.673Z,70.95
2019-04-30T12:54:53.795Z,71.49
2019-04-30T12:57:39.138Z,70.75
2019-04-30T13:00:12.133Z,72.60
2019-04-30T13:02:43.141Z,71.03
2019-04-30T13:05:14.719Z,70.50
2019-04-30T13:07:46.092Z,69.48
2019-04-30T13:10:18.395Z,69.02
2019-04-30T13:12:50.282Z,67.89
2019-04-30T13:15:21.987Z,69.32
2019-04-30T13:17:52.956Z,69.46
2019-04-30T13:20:25.343Z,67.98
2019-04-30T13:22:56.400Z,67.54
2019-04-30T13:25:34.792Z,69.13
2019-04-30T13:28:05.069Z,70.46
2019-04-30T13:30:36.233Z,67.81
2019-04-30T13:33:31.462Z,69.40
2019-04-30T13:36:02.449Z,68.59
2019-04-30T13:39:04.703Z,68.18
2019-04-30T13:42:01.047Z,68.08
2019-04-30T13:44:36.011Z,67.41
2019-04-30T13:47:10.672Z,67.19
2019-04-30T13:49:40.110Z,67.50
2019-04-30T13:52:11.156Z,67.21
2019-04-30T13:54:42.177Z,68.70
2019-04-30T13:57:13.253Z,66.15
2019-04-30T13:59:44.298Z,64.92
2019-04-30T14:02:15.507Z,65.20
2019-04-30T14:04:53.344Z,64.26
2019-04-30T14:07:39.951Z,64.41
2019-04-30T14:10:11.108Z,65.18
2019-04-30T14:12:47.473Z,64.70
2019-04-30T14:15:19.271Z,63.64
2019-04-30T14:17:50.568Z,63.69
2019-04-30T14:20:22.317Z,64.23
2019-04-30T14:22:53.321Z,61.44
2019-04-30T14:25:24.381Z,62.72
2019-04-30T14:27:55.612Z,60.89
2019-04-30T14:30:29.141Z,61.29
2019-04-30T14:32:59.913Z,60.44
2019-04-30T14:35:31.083Z,60.15
2019-04-30T14:38:02.096Z,61.03
2019-04-30T14:40:33.609Z,60.31
2019-04-30T14:43:30.867Z,60.13
2019-04-30T14:46:30.762Z,60.86
2019-04-30T14:49:23.198Z,60.64
2019-04-30T14:51:54.755Z,60.39
2019-04-30T14:54:39.262Z,59.22
2019-04-30T14:57:32.221Z,61.02
2019-04-30T15:00:23.249Z,61.12
2019-04-30T15:02:59.566Z,61.38
2019-04-30T15:05:38.859Z,61.69
2019-04-30T15:08:03.433Z,62.27
2019-04-30T15:10:34.685Z,62.88
2019-04-30T15:14:11.377Z,62.32
2019-04-30T15:16:42.501Z,61.84
2019-04-30T15:19:13.569Z,61.12
2019-04-30T15:21:45.251Z,61.10
2019-04-30T15:24:26.962Z,61.65
2019-04-30T15:26:58.223Z,62.46
2019-04-30T15:29:29.350Z,60.12
2019-04-30T15:32:00.514Z,59.83
2019-04-30T15:34:31.555Z,60.59
2019-04-30T15:37:02.659Z,61.51
2019-04-30T15:39:52.360Z,62.84
2019-04-30T15:42:24.476Z,61.85
2019-04-30T15:44:55.772Z,60.30
2019-04-30T15:47:28.797Z,59.10
2019-04-30T15:50:02.179Z,61.42
2019-04-30T15:52:32.542Z,60.25
2019-04-30T15:55:03.672Z,61.27
2019-04-30T15:57:49.435Z,61.51
2019-04-30T16:00:21.101Z,60.90
2019-04-30T16:03:00.633Z,62.92
2019-04-30T16:05:34.318Z,62.86
2019-04-30T16:08:23.122Z,60.90
2019-04-30T16:11:10.570Z,61.32
2019-04-30T16:14:10.723Z,61.02
2019-04-30T16:16:44.430Z,61.00
2019-04-30T16:19:15.396Z,61.03
2019-04-30T16:21:46.442Z,61.12
2019-04-30T16:24:18.736Z,60.91
2019-04-30T16:26:52.713Z,60.66
2019-04-30T16:29:23.031Z,61.32
2019-04-30T16:31:54.475Z,62.87
2019-04-30T16:34:25.545Z,60.96
2019-04-30T16:36:56.627Z,62.10
2019-04-30T16:39:28.821Z,61.85
2019-04-30T16:41:59.908Z,61.38
2019-04-30T16:44:30.959Z,62.35
2019-04-30T16:47:13.153Z,61.93
2019-04-30T16:49:34.792Z,63.66
2019-04-30T16:52:06.100Z,61.50
2019-04-30T16:54:37.179Z,63.30
2019-04-30T16:57:10.300Z,62.42
2019-04-30T16:59:42.327Z,64.21
2019-04-30T17:02:14.540Z,63.69
2019-04-30T17:04:51.083Z,63.79
2019-04-30T17:07:44.884Z,63.60
2019-04-30T17:10:22.009Z,63.55
2019-04-30T17:13:00.027Z,63.80
2019-04-30T17:15:31.983Z,64.12
2019-04-30T17:18:03.229Z,64.23
2019-04-30T17:20:34.265Z,64.13
2019-04-30T17:23:05.246Z,64.16
2019-04-30T17:25:36.283Z,63.99
2019-04-30T17:28:09.190Z,65.28
2019-04-30T17:30:40.143Z,64.46
2019-04-30T17:33:11.154Z,64.16
2019-04-30T17:35:42.169Z,64.95
2019-04-30T17:38:13.544Z,64.71
2019-04-30T17:40:44.540Z,64.61
2019-04-30T17:43:15.539Z,64.09
2019-04-30T17:45:49.313Z,64.64
2019-04-30T17:48:20.379Z,64.32
2019-04-30T17:50:51.377Z,66.27
2019-04-30T17:53:22.505Z,65.00
2019-04-30T17:55:53.543Z,65.79
2019-04-30T17:58:24.574Z,65.72
2019-04-30T18:00:57.341Z,66.49
2019-04-30T18:03:28.955Z,66.17
2019-04-30T18:05:59.951Z,66.23
2019-04-30T18:08:31.025Z,67.00
2019-04-30T18:11:01.997Z,66.65
2019-04-30T18:13:33.072Z,66.07
2019-04-30T18:16:04.223Z,65.73
2019-04-30T18:18:42.724Z,66.63
2019-04-30T18:21:23.118Z,67.20
2019-04-30T18:24:12.023Z,67.29
2019-04-30T18:26:49.257Z,66.94
2019-04-30T18:29:20.264Z,67.98
2019-04-30T18:31:51.245Z,67.97
2019-04-30T18:34:22.264Z,69.29
2019-04-30T18:36:53.383Z,68.27
2019-04-30T18:39:24.346Z,68.57
2019-04-30T18:41:55.443Z,68.91
2019-04-30T18:44:26.440Z,68.58
2019-04-30T18:46:59.066Z,69.49
2019-04-30T18:49:30.090Z,69.35
2019-04-30T18:52:01.171Z,69.44
2019-04-30T18:54:32.285Z,69.42
2019-04-30T18:57:03.438Z,68.93
2019-04-30T18:59:34.506Z,68.21
2019-04-30T19:02:07.282Z,69.06
2019-04-30T19:04:40.601Z,69.61
2019-04-30T19:07:25.932Z,69.34
2019-04-30T19:10:34.099Z,70.37
2019-04-30T19:17:02.870Z,69.77
2019-04-30T19:19:50.909Z,69.80
2019-04-30T19:22:21.902Z,70.49
2019-04-30T19:24:58.562Z,70.63
2019-04-30T19:27:25.849Z,70.05
2019-04-30T19:29:56.832Z,70.16
2019-04-30T19:32:30.313Z,70.73
2019-04-30T19:35:00.764Z,70.51
2019-04-30T19:37:33.064Z,70.78
2019-04-30T19:40:05.575Z,71.13
2019-04-30T19:42:36.572Z,70.37
2019-04-30T19:45:10.289Z,70.75
2019-04-30T19:47:40.715Z,71.59
2019-04-30T19:50:14.123Z,70.66
2019-04-30T19:52:44.551Z,70.71
2019-04-30T19:55:15.764Z,70.71
2019-04-30T19:57:48.401Z,70.49
2019-04-30T20:00:19.777Z,71.04
2019-04-30T20:02:50.744Z,69.71
2019-04-30T20:05:21.757Z,70.90
2019-04-30T20:07:52.756Z,72.33
2019-04-30T20:10:23.770Z,71.40
2019-04-30T20:12:54.750Z,72.44
2019-04-30T20:15:26.858Z,72.09
2019-04-30T20:17:58.705Z,72.41
2019-04-30T20:20:30.662Z,71.96
2019-04-30T20:23:01.695Z,71.23
2019-04-30T20:25:32.845Z,71.09
2019-04-30T20:28:03.898Z,71.01
2019-04-30T20:30:34.917Z,71.18
2019-04-30T20:33:06.099Z,71.25
2019-04-30T20:35:39.019Z,70.83
2019-04-30T20:38:38.256Z,70.87
2019-04-30T20:41:10.065Z,71.83
2019-04-30T20:43:41.088Z,71.75
2019-04-30T20:46:12.092Z,71.90
2019-04-30T20:48:43.066Z,71.82
2019-04-30T20:51:14.069Z,71.24
2019-04-30T20:53:45.064Z,71.94
2019-04-30T20:56:16.086Z,71.54
2019-04-30T20:58:57.254Z,71.19
2019-04-30T21:01:19.782Z,70.91
2019-04-30T21:03:50.773Z,71.65
2019-04-30T21:06:21.783Z,71.60
2019-04-30T21:08:52.762Z,71.72
2019-04-30T21:11:23.759Z,71.41
2019-04-30T21:13:54.742Z,71.14
2019-04-30T21:16:25.807Z,71.10
2019-04-30T21:18:56.773Z,71.45
2019-04-30T21:21:28.802Z,72.10
2019-04-30T21:23:59.931Z,72.33
2019-04-30T21:26:30.963Z,72.09
2019-04-30T21:29:11.158Z,71.45
2019-04-30T21:31:41.169Z,72.00
2019-04-30T21:34:21.025Z,73.18
2019-04-30T21:36:52.171Z,72.69
2019-04-30T21:39:23.189Z,72.80
2019-04-30T21:41:54.202Z,72.69
2019-04-30T21:44:25.212Z,72.34
2019-04-30T21:46:57.335Z,72.85
2019-04-30T21:49:28.354Z,72.75
2019-04-30T21:51:59.377Z,72.14
2019-04-30T21:54:30.616Z,72.57
2019-04-30T21:57:01.600Z,72.64
2019-04-30T21:59:32.604Z,72.37
2019-04-30T22:02:03.689Z,72.27
2019-04-30T22:04:34.719Z,72.39
2019-04-30T22:07:05.817Z,73.02
2019-04-30T22:09:36.813Z,72.55
2019-04-30T22:12:09.218Z,72.61
2019-04-30T22:14:40.412Z,72.63
2019-04-30T22:17:11.448Z,73.22
2019-04-30T22:19:42.483Z,74.02
2019-04-30T22:22:13.553Z,72.75
2019-04-30T22:24:44.648Z,73.29
2019-04-30T22:27:17.484Z,73.28
2019-04-30T22:29:48.487Z,73.17
2019-04-30T22:32:19.469Z,72.98
2019-04-30T22:34:50.457Z,72.81
2019-04-30T22:37:21.435Z,72.53
2019-04-30T22:39:59.389Z,72.65
2019-04-30T22:42:32.991Z,72.64
2019-04-30T22:45:07.692Z,72.39
2019-04-30T22:47:38.659Z,72.22
2019-04-30T22:50:10.479Z,72.39
2019-04-30T22:52:41.494Z,72.40
2019-04-30T22:55:12.589Z,72.08
2019-04-30T22:57:43.807Z,72.83
2019-04-30T23:00:22.525Z,73.42
2019-04-30T23:02:59.353Z,73.13
2019-04-30T23:05:30.533Z,72.70
2019-04-30T23:08:01.505Z,72.87
2019-04-30T23:10:32.558Z,73.17
2019-04-30T23:13:03.607Z,73.40
2019-04-30T23:15:34.902Z,73.18
2019-04-30T23:18:06.228Z,73.12
2019-04-30T23:20:37.282Z,73.46
2019-04-30T23:23:08.248Z,74.02
2019-04-30T23:25:39.323Z,74.44
2019-04-30T23:28:10.312Z,74.29
2019-04-30T23:30:41.295Z,75.43
2019-04-30T23:33:12.327Z,74.48
2019-04-30T23:35:43.320Z,75.56
2019-04-30T23:38:14.449Z,75.02
2019-04-30T23:40:51.679Z,74.68
2019-04-30T23:43:22.823Z,75.58
2019-04-30T23:45:53.881Z,74.66
2019-04-30T23:48:24.860Z,75.40
2019-04-30T23:50:55.849Z,75.06
2019-04-30T23:53:26.844Z,76.65
2019-04-30T23:55:57.895Z,75.60
2019-04-30T23:58:28.874Z,76.36
